Time;durP1;ratioP1;P1;durP2;ratioP2;P2;SDS_P1;SDS_P2;PMS_P1;PMS_P2;Temp;Humidity;BMP_temperature;BMP_pressure;BME280_temperature;BME280_humidity;BME280_pressure;Samples;Min_cycle;Max_cycle;Signal;HPM_P1;HPM_P2
2022/01/02 00:01:46;;;;;;;6.75;4.40;;;;;;;7.60;73.74;101133.84;5093921;28;20111;-55
2022/01/02 00:04:20;;;;;;;8.55;3.67;;;;;;;7.58;73.50;101125.13;5081939;28;20039;-53
2022/01/02 00:06:54;;;;;;;5.53;2.88;;;;;;;7.52;73.66;101119.88;5073994;28;20032;-53
2022/01/02 00:09:34;;;;;;;5.70;3.17;;;;;;;7.49;74.17;101124.22;5073808;28;20146;-54
2022/01/02 00:12:14;;;;;;;6.63;3.75;;;;;;;7.51;74.13;101118.13;5073734;28;20033;-55
2022/01/02 00:14:47;;;;;;;6.68;3.33;;;;;;;7.44;74.54;101108.53;5076076;28;20472;-53
2022/01/02 00:17:16;;;;;;;;;;;;;;;7.40;74.64;101107.63;5086843;28;20422;-55
2022/01/02 00:19:46;;;;;;;5.43;3.03;;;;;;;7.44;75.10;101110.25;5093731;28;20044;-55
2022/01/02 00:22:15;;;;;;;5.78;3.47;;;;;;;7.43;75.23;101103.28;5091372;28;20490;-55
2022/01/02 00:24:42;;;;;;;5.18;3.33;;;;;;;7.45;75.42;101084.09;5082817;28;20078;-55
2022/01/02 00:27:10;;;;;;;7.32;3.97;;;;;;;7.46;75.47;101067.56;5093911;28;20040;-54
2022/01/02 00:29:38;;;;;;;5.40;3.30;;;;;;;7.45;75.71;101044.03;5093364;28;20036;-54
2022/01/02 00:32:06;;;;;;;6.18;3.38;;;;;;;7.41;75.84;101030.94;5091298;28;20473;-52
2022/01/02 00:34:37;;;;;;;5.38;3.45;;;;;;;7.40;76.12;101037.03;5091297;28;20048;-52
2022/01/02 00:37:04;;;;;;;6.25;3.90;;;;;;;7.38;76.38;101054.47;5094285;28;20039;-50
2022/01/02 00:39:30;;;;;;;6.38;3.50;;;;;;;7.38;76.66;101056.19;5092103;28;20379;-53
2022/01/02 00:41:56;;;;;;;6.22;3.85;;;;;;;7.37;76.75;101051.84;5085839;28;20036;-53
2022/01/02 00:44:32;;;;;;;6.55;4.10;;;;;;;7.36;76.98;101050.97;5082762;28;20469;-54
2022/01/02 00:47:19;;;;;;;5.82;3.53;;;;;;;7.34;77.24;101047.50;5093530;28;20043;-53
2022/01/02 00:49:58;;;;;;;6.93;3.28;;;;;;;7.41;77.20;101043.13;5081665;28;20528;-52
2022/01/02 00:52:25;;;;;;;5.53;3.47;;;;;;;7.39;77.44;101037.91;5092884;28;20043;-54
2022/01/02 00:54:55;;;;;;;5.43;2.83;;;;;;;7.40;77.53;101036.16;5093144;28;20050;-51
2022/01/02 00:57:29;;;;;;;6.35;3.33;;;;;;;7.39;77.76;101024.84;5092808;28;20041;-54
2022/01/02 01:00:13;;;;;;;5.60;3.40;;;;;;;7.33;78.37;101013.50;5084054;28;20119;-54
2022/01/02 01:02:45;;;;;;;5.70;2.92;;;;;;;7.38;78.20;101003.91;5082432;28;20031;-52
2022/01/02 01:05:18;;;;;;;4.55;2.22;;;;;;;7.35;78.68;101009.16;5093262;28;20024;-55
2022/01/02 01:07:47;;;;;;;5.15;3.10;;;;;;;7.43;78.58;101002.19;5092695;28;20043;-52
2022/01/02 01:10:13;;;;;;;4.70;2.80;;;;;;;7.42;78.79;101005.69;5077769;28;20476;-56
2022/01/02 01:12:38;;;;;;;6.55;3.40;;;;;;;7.47;78.71;100990.00;5074335;28;20052;-53
2022/01/02 01:15:07;;;;;;;5.60;2.58;;;;;;;7.46;78.90;100985.63;5093137;28;20380;-54
2022/01/02 01:17:35;;;;;;;5.68;2.92;;;;;;;7.45;79.20;100976.03;5093448;28;20070;-55
2022/01/02 01:20:01;;;;;;;7.43;2.88;;;;;;;7.41;79.57;100959.47;5093298;28;20435;-52
2022/01/02 01:22:26;;;;;;;5.35;2.70;;;;;;;7.43;79.77;100952.53;5088101;28;20174;-55
2022/01/02 01:24:52;;;;;;;5.70;2.72;;;;;;;7.40;80.13;100962.97;5074176;28;20024;-54
2022/01/02 01:27:17;;;;;;;5.15;2.30;;;;;;;7.38;80.40;100970.81;5093769;28;20063;-51
2022/01/02 01:29:42;;;;;;;7.63;3.03;;;;;;;7.41;80.44;100954.25;5092897;28;20044;-52
2022/01/02 01:32:09;;;;;;;5.97;2.88;;;;;;;7.42;80.60;100945.56;5093333;28;20483;-52
2022/01/02 01:34:34;;;;;;;4.90;2.95;;;;;;;7.45;80.68;100940.31;5075498;28;20052;-52
2022/01/02 01:37:00;;;;;;;4.88;2.67;;;;;;;7.47;80.75;100932.47;5090911;28;20421;-52
2022/01/02 01:39:26;;;;;;;5.80;3.10;;;;;;;7.49;80.92;100925.47;5095974;28;20032;-54
2022/01/02 01:41:54;;;;;;;6.78;3.47;;;;;;;7.50;80.99;100922.00;5096522;28;20114;-55
2022/01/02 01:44:27;;;;;;;6.53;3.38;;;;;;;7.48;81.19;100913.28;5086249;28;20029;-53
2022/01/02 01:46:55;;;;;;;7.75;4.20;;;;;;;7.49;81.42;100913.28;5076577;28;20039;-53
2022/01/02 01:49:26;;;;;;;7.97;4.30;;;;;;;7.49;81.56;100904.56;5077264;28;20032;-54
2022/01/02 01:51:51;;;;;;;7.80;4.38;;;;;;;7.47;82.00;100911.56;5090956;28;20058;-51
2022/01/02 01:54:17;;;;;;;9.82;4.30;;;;;;;7.52;81.75;100900.22;5096457;28;20059;-52
2022/01/02 01:56:45;;;;;;;7.82;4.47;;;;;;;7.54;81.80;100897.59;5096666;28;20083;-51
2022/01/02 01:59:11;;;;;;;7.82;4.70;;;;;;;7.55;82.06;100899.34;5078090;28;20047;-54
2022/01/02 02:01:36;;;;;;;6.13;4.10;;;;;;;7.60;81.92;100898.47;5079215;28;20388;-54
2022/01/02 02:04:02;;;;;;;7.28;4.47;;;;;;;7.62;81.86;100881.03;5077287;28;20036;-55
2022/01/02 02:06:27;;;;;;;6.93;4.18;;;;;;;7.61;82.06;100868.81;5075606;28;20039;-56
2022/01/02 02:08:59;;;;;;;8.88;4.57;;;;;;;7.56;82.58;100865.34;5076432;28;20032;-55
2022/01/02 02:11:24;;;;;;;6.60;4.07;;;;;;;7.62;82.39;100862.72;5095166;28;20054;-54
2022/01/02 02:13:51;;;;;;;6.97;4.50;;;;;;;7.67;82.33;100854.88;5094302;28;20036;-54
2022/01/02 02:16:16;;;;;;;6.85;4.50;;;;;;;7.71;82.22;100860.97;5095482;28;20036;-52
2022/01/02 02:18:41;;;;;;;8.63;4.70;;;;;;;7.72;82.29;100866.19;5095776;28;20070;-54
2022/01/02 02:21:07;;;;;;;5.53;4.47;;;;;;;7.75;82.34;100870.53;5087146;28;20404;-54
2022/01/02 02:23:32;;;;;;;7.80;4.72;;;;;;;7.71;82.69;100877.53;5076855;28;20028;-52
2022/01/02 02:25:58;;;;;;;6.40;4.45;;;;;;;7.75;82.45;100871.41;5081422;28;20074;-50
2022/01/02 02:28:26;;;;;;;8.20;5.20;;;;;;;7.77;82.78;100876.63;5075766;28;20104;-52
2022/01/02 02:30:53;;;;;;;7.00;4.60;;;;;;;7.80;82.76;100882.72;5092498;28;20499;-52
2022/01/02 02:33:19;;;;;;;6.32;4.97;;;;;;;7.86;82.68;100876.63;5074011;28;20059;-54
2022/01/02 02:35:46;;;;;;;9.10;5.32;;;;;;;7.88;82.82;100882.72;5085106;28;20031;-54
2022/01/02 02:38:14;;;;;;;7.30;4.95;;;;;;;7.88;83.07;100874.84;5086678;28;20044;-55
2022/01/02 02:40:41;;;;;;;8.65;5.00;;;;;;;7.88;83.18;100872.25;5093302;28;20036;-52
2022/01/02 02:49:02;;;;;;;7.47;5.13;;;;;;;7.84;83.81;100828.66;5089146;28;20267;-53
2022/01/02 02:51:34;;;;;;;6.72;4.78;;;;;;;7.88;83.83;100822.53;5089317;28;20040;-54
2022/01/02 02:53:59;;;;;;;8.32;5.32;;;;;;;7.94;83.60;100816.41;5078255;28;20111;-52
2022/01/02 02:56:29;;;;;;;8.05;5.60;;;;;;;7.98;83.54;100805.94;5074915;28;20555;-54
2022/01/02 02:58:56;;;;;;;7.63;4.97;;;;;;;7.97;83.83;100806.78;5074658;28;20037;-55
2022/01/02 03:01:27;;;;;;;6.93;4.55;;;;;;;8.01;83.76;100805.91;5092608;28;20064;-55
2022/01/02 03:03:53;;;;;;;6.32;4.40;;;;;;;8.01;83.70;100795.44;5084576;28;20040;-54
2022/01/02 03:06:18;;;;;;;7.28;5.70;;;;;;;8.06;83.62;100791.06;5074528;28;20047;-52
2022/01/02 03:08:45;;;;;;;6.30;5.25;;;;;;;8.06;84.01;100793.69;5079567;28;20090;-55
2022/01/02 03:11:16;;;;;;;7.63;5.65;;;;;;;8.06;84.06;100785.84;5094850;28;20040;-53
2022/01/02 03:13:44;;;;;;;6.65;4.95;;;;;;;8.03;84.34;100780.59;5091895;28;20048;-52
2022/01/02 03:16:10;;;;;;;7.93;4.50;;;;;;;8.06;84.42;100767.50;5074430;28;20036;-52
2022/01/02 03:18:35;;;;;;;6.70;4.72;;;;;;;8.04;84.66;100748.31;5074674;28;20097;-54
2022/01/02 03:21:02;;;;;;;6.78;4.63;;;;;;;8.10;84.68;100735.22;5082691;28;20508;-54
2022/01/02 03:23:27;;;;;;;8.55;5.97;;;;;;;8.11;84.72;100723.00;5092459;28;20158;-52
2022/01/02 03:25:53;;;;;;;6.05;4.35;;;;;;;8.12;84.72;100720.34;5074520;28;20119;-52
2022/01/02 03:28:19;;;;;;;8.35;5.60;;;;;;;8.17;84.72;100711.59;5074449;28;20484;-52
2022/01/02 03:30:44;;;;;;;6.05;4.70;;;;;;;8.19;84.63;100709.84;5090693;28;20036;-54
2022/01/02 03:33:10;;;;;;;5.80;4.25;;;;;;;8.20;84.62;100706.34;5092573;28;20075;-55
2022/01/02 03:35:36;;;;;;;8.85;5.40;;;;;;;8.19;84.72;100694.16;5093509;28;20113;-53
2022/01/02 03:38:03;;;;;;;5.82;4.40;;;;;;;8.17;85.08;100686.28;5094370;28;20118;-55
2022/01/02 03:40:29;;;;;;;5.85;4.45;;;;;;;8.18;85.50;100679.31;5091003;28;20058;-55
2022/01/02 03:42:55;;;;;;;5.95;4.85;;;;;;;8.17;85.68;100680.19;5094533;28;20073;-53
2022/01/02 03:45:20;;;;;;;6.97;4.55;;;;;;;8.17;85.70;100669.72;5093945;28;20048;-53
2022/01/02 03:47:46;;;;;;;7.50;5.28;;;;;;;8.14;86.25;100661.03;5090956;28;20031;-53
2022/01/02 03:50:11;;;;;;;6.38;4.75;;;;;;;8.15;86.50;100665.38;5093137;28;20024;-55
2022/01/02 03:52:37;;;;;;;6.38;4.45;;;;;;;8.19;86.37;100653.13;5079069;28;20048;-51
2022/01/02 03:55:03;;;;;;;6.55;4.80;;;;;;;8.22;86.44;100645.25;5073788;28;20039;-53
2022/01/02 03:57:28;;;;;;;7.82;5.47;;;;;;;8.26;86.60;100641.75;5073372;28;20078;-52
2022/01/02 03:59:54;;;;;;;8.80;5.55;;;;;;;8.31;86.08;100637.31;5073948;28;20052;-55
2022/01/02 04:02:19;;;;;;;5.65;4.05;;;;;;;8.38;86.11;100638.19;5073949;28;20361;-55
2022/01/02 04:04:45;;;;;;;5.82;4.88;;;;;;;8.39;85.96;100627.69;5076450;28;20067;-54
2022/01/02 04:07:11;;;;;;;5.78;4.40;;;;;;;8.42;86.17;100629.44;5076187;28;20070;-53
2022/01/02 04:09:36;;;;;;;6.82;5.18;;;;;;;8.45;86.01;100629.38;5093781;28;20036;-55
2022/01/02 04:12:02;;;;;;;5.35;3.72;;;;;;;8.45;86.27;100621.50;5093012;28;20024;-54
2022/01/02 04:14:27;;;;;;;5.45;4.18;;;;;;;8.46;86.18;100611.91;5081961;28;20498;-52
2022/01/02 04:16:52;;;;;;;5.13;4.57;;;;;;;8.44;86.67;100611.94;5073646;28;20033;-51
2022/01/02 04:19:18;;;;;;;4.65;3.80;;;;;;;8.47;86.57;100606.69;5073541;28;20111;-54
2022/01/02 04:21:43;;;;;;;5.25;3.90;;;;;;;8.48;86.69;100599.69;5074121;28;20039;-54
2022/01/02 04:24:09;;;;;;;6.25;4.45;;;;;;;8.53;86.61;100601.34;5076745;28;20115;-53
2022/01/02 04:26:34;;;;;;;5.70;4.57;;;;;;;8.52;86.69;100594.41;5073796;28;20498;-53
2022/01/02 04:29:00;;;;;;;5.75;4.35;;;;;;;8.54;86.80;100586.53;5076943;28;20471;-54
2022/01/02 04:31:25;;;;;;;5.85;4.90;;;;;;;8.50;87.23;100584.84;5093863;28;20421;-53
2022/01/02 04:33:51;;;;;;;5.03;4.28;;;;;;;8.54;87.18;100582.16;5093714;28;20048;-53
2022/01/02 04:36:16;;;;;;;6.43;5.00;;;;;;;8.56;87.29;100564.66;5082903;28;20036;-55
2022/01/02 04:38:42;;;;;;;5.78;4.45;;;;;;;8.60;87.18;100553.28;5073480;28;20032;-54
2022/01/02 04:41:09;;;;;;;5.93;4.20;;;;;;;8.64;87.05;100541.88;5083441;28;20060;-52
2022/01/02 04:43:34;;;;;;;5.20;4.53;;;;;;;8.66;87.16;100535.75;5093707;28;20040;-51
2022/01/02 04:46:00;;;;;;;6.32;4.57;;;;;;;8.68;87.17;100536.63;5092437;28;20059;-53
2022/01/02 04:48:26;;;;;;;7.20;5.13;;;;;;;8.69;87.09;100540.97;5093518;28;20490;-53
2022/01/02 04:50:52;;;;;;;7.05;5.30;;;;;;;8.71;87.19;100526.09;5088066;28;20115;-53
2022/01/02 04:53:19;;;;;;;7.30;5.18;;;;;;;8.70;87.41;100540.97;5093124;28;20036;-55
2022/01/02 04:55:44;;;;;;;7.32;5.43;;;;;;;8.70;87.59;100526.97;5073050;28;20395;-53
2022/01/02 04:58:10;;;;;;;7.28;5.43;;;;;;;8.70;87.71;100512.16;5082556;28;20123;-51
2022/01/02 05:00:35;;;;;;;7.80;5.28;;;;;;;8.74;87.69;100502.50;5091746;28;20103;-54
2022/01/02 05:03:01;;;;;;;7.00;5.53;;;;;;;8.72;87.94;100514.72;5093482;28;20395;-53
2022/01/02 05:05:26;;;;;;;7.47;5.60;;;;;;;8.72;87.97;100506.88;5083864;28;20116;-54
2022/01/02 05:07:51;;;;;;;8.63;5.28;;;;;;;8.72;88.03;100504.25;5093501;28;20036;-52
2022/01/02 05:10:17;;;;;;;7.57;5.93;;;;;;;8.75;88.18;100497.22;5096453;28;20036;-52
2022/01/02 05:12:42;;;;;;;8.57;6.00;;;;;;;8.73;88.27;100478.03;5082982;28;20033;-54
2022/01/02 05:15:08;;;;;;;8.40;5.78;;;;;;;8.75;88.26;100496.38;5076879;28;20032;-53
2022/01/02 05:17:34;;;;;;;10.45;6.45;;;;;;;8.80;88.31;100500.66;5079619;28;20036;-54
2022/01/02 05:20:00;;;;;;;7.85;6.25;;;;;;;8.84;88.45;100506.72;5095208;28;20043;-54
2022/01/02 05:22:26;;;;;;;7.32;5.90;;;;;;;8.88;88.44;100505.78;5096543;28;20092;-50
2022/01/02 05:24:51;;;;;;;8.73;6.10;;;;;;;8.86;88.75;100495.34;5095540;28;20020;-50
2022/01/02 05:27:17;;;;;;;7.82;6.25;;;;;;;8.89;88.97;100499.66;5084606;28;20480;-51
2022/01/02 05:29:42;;;;;;;8.77;6.07;;;;;;;8.87;89.13;100490.97;5076620;28;20124;-52
2022/01/02 05:32:07;;;;;;;7.72;5.85;;;;;;;8.92;89.11;100494.38;5082986;28;20051;-50
2022/01/02 05:34:33;;;;;;;9.05;6.45;;;;;;;8.97;89.13;100500.44;5081623;28;20131;-55
2022/01/02 05:36:58;;;;;;;8.40;6.13;;;;;;;8.94;89.57;100476.03;5090940;28;20032;-51
2022/01/02 05:39:24;;;;;;;8.13;6.05;;;;;;;9.01;89.25;100475.03;5088593;28;20063;-54
2022/01/02 05:41:51;;;;;;;8.43;6.50;;;;;;;9.04;89.32;100462.78;5095541;28;20043;-54
2022/01/02 05:44:18;;;;;;;8.00;6.03;;;;;;;9.08;89.27;100461.84;5086716;28;20107;-52
2022/01/02 05:46:44;;;;;;;9.85;7.18;;;;;;;9.10;89.27;100456.59;5085550;28;20035;-50
2022/01/02 05:49:10;;;;;;;9.52;6.95;;;;;;;9.12;89.38;100455.66;5082911;28;20039;-52
2022/01/02 05:51:36;;;;;;;9.48;6.78;;;;;;;9.18;89.47;100456.50;5083369;28;20468;-51
2022/01/02 05:54:02;;;;;;;8.75;7.18;;;;;;;9.18;89.50;100448.63;5096573;28;20077;-52
2022/01/02 05:56:28;;;;;;;9.95;7.07;;;;;;;9.13;90.09;100446.91;5085180;28;20036;-54
2022/01/02 05:58:53;;;;;;;11.07;7.10;;;;;;;9.18;90.00;100448.63;5092774;28;20032;-51
2022/01/02 06:01:18;;;;;;;9.98;7.80;;;;;;;9.18;90.55;100452.09;5076627;28;20080;-52
2022/01/02 06:03:44;;;;;;;10.63;7.93;;;;;;;9.22;90.52;100450.31;5085951;28;20064;-55
2022/01/02 06:06:09;;;;;;;9.48;7.13;;;;;;;9.20;91.24;100436.34;5090694;28;20042;-53
2022/01/02 06:08:35;;;;;;;10.65;7.63;;;;;;;9.20;91.04;100441.59;5085146;28;20045;-55
2022/01/02 06:11:00;;;;;;;11.80;8.48;;;;;;;9.15;92.28;100428.56;5085359;28;20081;-55
2022/01/02 06:13:26;;;;;;;9.65;7.53;;;;;;;9.19;91.52;100422.38;5087935;28;20123;-53
2022/01/02 06:15:51;;;;;;;10.55;7.72;;;;;;;9.22;91.64;100414.47;5080597;28;20405;-51
2022/01/02 06:18:17;;;;;;;9.80;6.95;;;;;;;9.26;91.48;100402.19;5084737;28;20040;-51
2022/01/02 06:20:42;;;;;;;11.73;8.32;;;;;;;9.29;91.37;100386.38;5073085;28;20427;-54
2022/01/02 06:23:08;;;;;;;9.57;7.32;;;;;;;9.34;91.09;100400.31;5090805;28;20040;-51
2022/01/02 06:25:33;;;;;;;8.93;7.43;;;;;;;9.38;91.05;100396.72;5075343;28;20044;-53
2022/01/02 06:27:59;;;;;;;9.63;7.80;;;;;;;9.38;91.21;100384.47;5082684;28;20028;-51
2022/01/02 06:30:25;;;;;;;9.95;7.82;;;;;;;9.41;91.05;100373.06;5090846;28;20383;-55
2022/01/02 06:32:54;;;;;;;9.68;7.78;;;;;;;9.38;91.64;100368.75;5095480;28;20181;-54
2022/01/02 06:35:32;;;;;;;10.75;7.97;;;;;;;9.42;91.64;100366.94;5076876;28;20037;-54
2022/01/02 06:37:59;;;;;;;11.20;8.00;;;;;;;9.45;91.41;100364.25;5080245;28;20106;-53
2022/01/02 06:40:26;;;;;;;12.00;8.63;;;;;;;9.49;91.43;100351.94;5089438;28;20036;-55
2022/01/02 06:42:52;;;;;;;12.30;9.20;;;;;;;9.53;91.26;100351.84;5095572;28;20036;-53
2022/01/02 06:45:18;;;;;;;13.68;9.50;;;;;;;9.53;91.68;100353.63;5094674;28;20047;-54
2022/01/02 06:47:44;;;;;;;12.90;9.10;;;;;;;9.54;91.63;100348.38;5095429;28;20031;-54
2022/01/02 06:50:12;;;;;;;9.98;8.30;;;;;;;9.54;92.08;100337.00;5095455;28;20413;-51
2022/01/02 06:52:38;;;;;;;11.88;8.93;;;;;;;9.54;92.04;100335.25;5095249;28;20033;-54
2022/01/02 06:55:04;;;;;;;11.25;8.20;;;;;;;9.57;91.91;100329.06;5095830;28;20055;-54
2022/01/02 06:57:29;;;;;;;12.68;9.27;;;;;;;9.59;91.73;100325.53;5075970;28;20068;-54
2022/01/02 06:59:55;;;;;;;12.85;9.38;;;;;;;9.58;92.00;100325.56;5075205;28;20056;-56
2022/01/02 07:02:20;;;;;;;12.25;9.20;;;;;;;9.62;91.83;100315.00;5092434;28;20058;-56
2022/01/02 07:04:46;;;;;;;11.70;9.10;;;;;;;9.62;92.11;100315.00;5095641;28;20032;-56
2022/01/02 07:07:11;;;;;;;14.55;9.88;;;;;;;9.56;93.14;100304.59;5087548;28;20044;-56
2022/01/02 07:09:37;;;;;;;12.85;10.27;;;;;;;9.54;93.20;100295.03;5074796;28;20431;-54
2022/01/02 07:12:03;;;;;;;13.60;9.95;;;;;;;9.59;92.83;100287.94;5074620;28;20038;-54
2022/01/02 07:14:29;;;;;;;14.75;10.80;;;;;;;9.61;93.09;100299.25;5074595;28;20538;-54
2022/01/02 07:16:54;;;;;;;14.68;11.07;;;;;;;9.62;92.76;100287.91;5074467;28;20033;-54
2022/01/02 07:19:20;;;;;;;11.55;9.27;;;;;;;9.60;92.91;100277.41;5082133;28;20039;-54
2022/01/02 07:21:46;;;;;;;12.88;9.82;;;;;;;9.61;93.12;100280.91;5094778;28;20024;-52
2022/01/02 07:24:12;;;;;;;15.07;10.82;;;;;;;9.60;93.87;100280.03;5094606;28;20035;-55
2022/01/02 07:26:37;;;;;;;13.43;9.77;;;;;;;9.62;93.86;100283.50;5093512;28;20065;-55
2022/01/02 07:29:02;;;;;;;14.88;10.98;;;;;;;9.62;93.77;100267.78;5094615;28;20053;-55
2022/01/02 07:31:28;;;;;;;16.02;11.23;;;;;;;9.61;94.09;100266.06;5094111;28;20042;-54
2022/01/02 07:33:53;;;;;;;13.75;10.52;;;;;;;9.66;93.81;100268.56;5094787;28;20075;-54
2022/01/02 07:36:19;;;;;;;15.07;10.57;;;;;;;9.68;93.99;100258.03;5084360;28;20032;-54
2022/01/02 07:38:44;;;;;;;13.68;10.70;;;;;;;9.72;93.79;100260.56;5074255;28;20029;-54
2022/01/02 07:41:09;;;;;;;16.45;10.90;;;;;;;9.72;94.29;100259.72;5074118;28;20039;-54
2022/01/02 07:43:35;;;;;;;14.98;11.00;;;;;;;9.72;94.34;100241.34;5074969;28;20081;-55
2022/01/02 07:46:00;;;;;;;16.13;11.00;;;;;;;9.70;94.68;100238.75;5084504;28;20045;-55
2022/01/02 07:48:25;;;;;;;15.43;11.88;;;;;;;9.77;94.15;100249.97;5085556;28;20372;-55
2022/01/02 07:50:51;;;;;;;15.20;11.50;;;;;;;9.73;94.95;100246.53;5091517;28;20486;-51
2022/01/02 07:53:16;;;;;;;14.77;10.75;;;;;;;9.78;94.57;100235.97;5093384;28;20040;-51
2022/01/02 07:55:43;;;;;;;16.60;12.02;;;;;;;9.80;94.61;100229.78;5093665;28;20028;-51
2022/01/02 07:58:09;;;;;;;15.15;10.90;;;;;;;9.87;94.04;100227.91;5093333;28;20044;-51
2022/01/02 08:00:34;;;;;;;16.98;11.10;;;;;;;9.91;94.00;100226.94;5088094;28;20376;-50
2022/01/02 08:03:00;;;;;;;16.27;11.35;;;;;;;9.89;94.49;100223.47;5083221;28;20036;-54
2022/01/02 08:05:25;;;;;;;14.63;10.75;;;;;;;9.92;94.26;100218.16;5086139;28;20032;-52
2022/01/02 08:07:51;;;;;;;15.90;11.35;;;;;;;9.98;94.16;100211.94;5092763;28;20117;-53
2022/01/02 08:10:16;;;;;;;15.23;11.00;;;;;;;10.03;93.61;100200.44;5073650;28;20028;-54
2022/01/02 08:12:42;;;;;;;14.52;10.38;;;;;;;10.03;93.87;100200.44;5076902;28;20044;-53
2022/01/02 08:15:08;;;;;;;16.38;11.48;;;;;;;10.02;93.97;100193.47;5087550;28;20460;-54
2022/01/02 08:17:34;;;;;;;15.13;11.23;;;;;;;10.04;94.08;100201.28;5093882;28;20036;-55
2022/01/02 08:19:59;;;;;;;16.90;11.70;;;;;;;10.11;93.65;100187.13;5093905;28;20047;-53
2022/01/02 08:22:25;;;;;;;15.27;10.32;;;;;;;10.18;93.26;100180.84;5081593;28;20086;-53
2022/01/02 08:24:50;;;;;;;15.95;11.27;;;;;;;10.14;93.58;100171.31;5076495;28;20391;-55
2022/01/02 08:27:16;;;;;;;15.95;10.90;;;;;;;10.17;93.75;100170.38;5086877;28;20040;-57
2022/01/02 08:29:41;;;;;;;13.13;9.60;;;;;;;10.27;92.95;100169.28;5080423;28;20036;-52
2022/01/02 08:32:07;;;;;;;14.90;11.50;;;;;;;10.28;92.99;100164.00;5089813;28;20043;-52
2022/01/02 08:34:32;;;;;;;12.57;9.50;;;;;;;10.39;92.19;100160.25;5085448;28;20484;-54
2022/01/02 08:36:58;;;;;;;13.70;9.45;;;;;;;10.42;92.09;100150.56;5083052;28;20050;-53
2022/01/02 08:39:23;;;;;;;14.70;10.40;;;;;;;10.44;91.84;100138.22;5081217;28;20467;-53
2022/01/02 08:41:48;;;;;;;13.65;10.00;;;;;;;10.47;91.91;100138.16;5080807;28;20070;-55
2022/01/02 08:44:14;;;;;;;13.77;9.82;;;;;;;10.51;91.99;100138.94;5080636;28;20111;-53
2022/01/02 08:46:39;;;;;;;17.63;10.32;;;;;;;10.52;91.93;100132.78;5085100;28;20046;-52
2022/01/02 08:49:04;;;;;;;13.00;9.73;;;;;;;10.55;91.70;100125.69;5092021;28;20058;-53
2022/01/02 08:51:30;;;;;;;13.20;9.73;;;;;;;10.60;91.41;100113.28;5080311;28;20052;-55
2022/01/02 08:53:55;;;;;;;13.80;9.60;;;;;;;10.58;91.68;100128.25;5079286;28;20036;-52
2022/01/02 08:56:21;;;;;;;14.45;9.80;;;;;;;10.64;91.43;100128.97;5087191;28;20554;-54
2022/01/02 08:58:46;;;;;;;14.05;9.10;;;;;;;10.59;91.43;100121.22;5077244;28;20082;-52
2022/01/02 09:01:12;;;;;;;12.30;8.88;;;;;;;10.66;90.95;100129.81;5077228;28;20373;-53
2022/01/02 09:03:37;;;;;;;14.50;9.55;;;;;;;10.70;90.82;100116.56;5077423;28;20058;-52
2022/01/02 09:06:03;;;;;;;12.73;8.85;;;;;;;10.73;90.48;100112.97;5078303;28;20036;-53
2022/01/02 09:08:28;;;;;;;13.70;9.43;;;;;;;10.72;90.75;100124.38;5091018;28;20060;-53
2022/01/02 09:10:54;;;;;;;12.43;9.43;;;;;;;10.59;91.46;100119.44;5087343;28;20039;-52
2022/01/02 09:13:23;;;;;;;13.80;9.43;;;;;;;10.48;92.60;100108.34;5083283;28;20044;-54
2022/01/02 09:15:48;;;;;;;13.23;9.68;;;;;;;10.53;92.05;100101.25;5093751;28;20043;-51
2022/01/02 09:18:14;;;;;;;13.63;9.80;;;;;;;10.60;91.86;100107.19;5087388;28;20032;-51
2022/01/02 09:20:40;;;;;;;10.40;8.18;;;;;;;10.67;91.25;100100.00;5086865;28;20049;-55
2022/01/02 09:23:06;;;;;;;12.48;8.02;;;;;;;10.68;91.25;100092.06;5097045;28;20032;-54
2022/01/02 09:25:31;;;;;;;12.55;8.85;;;;;;;10.66;91.31;100087.78;5081125;28;20036;-52
2022/01/02 09:27:56;;;;;;;15.48;10.07;;;;;;;10.65;91.73;100078.16;5076679;28;20032;-54
2022/01/02 09:30:22;;;;;;;11.75;8.80;;;;;;;10.72;91.46;100069.19;5078691;28;20032;-53
2022/01/02 09:32:47;;;;;;;15.25;9.63;;;;;;;10.80;90.91;100061.97;5094373;28;20054;-53
2022/01/02 09:35:13;;;;;;;12.07;9.85;;;;;;;10.78;90.84;100048.03;5096667;28;20105;-55
2022/01/02 09:37:38;;;;;;;14.55;10.43;;;;;;;10.80;90.70;100040.94;5090129;28;20076;-52
2022/01/02 09:40:06;;;;;;;12.30;9.10;;;;;;;10.83;90.50;100031.22;5082031;28;20066;-54
2022/01/02 09:42:32;;;;;;;10.73;8.60;;;;;;;10.84;90.39;100032.06;5085499;28;20036;-54
2022/01/02 09:44:58;;;;;;;11.85;8.60;;;;;;;10.85;90.55;100028.53;5085306;28;20103;-54
2022/01/02 09:47:23;;;;;;;11.40;8.75;;;;;;;10.82;90.67;100015.50;5091958;28;20044;-54
2022/01/02 09:49:49;;;;;;;11.88;9.75;;;;;;;10.90;90.54;100018.78;5088945;28;20040;-53
2022/01/02 09:52:24;;;;;;;10.55;8.88;;;;;;;10.89;90.22;100027.56;5082947;28;20123;-51
2022/01/02 09:54:49;;;;;;;11.75;9.23;;;;;;;10.89;90.17;100009.16;5074930;28;20114;-56
2022/01/02 09:57:14;;;;;;;13.07;9.77;;;;;;;10.93;89.92;100002.03;5084212;28;20048;-54
2022/01/02 09:59:40;;;;;;;11.52;9.30;;;;;;;10.97;89.53;100009.81;5080216;28;20527;-55
2022/01/02 10:02:06;;;;;;;12.60;9.50;;;;;;;10.91;89.93;99998.59;5076495;28;20432;-55
2022/01/02 10:04:38;;;;;;;15.70;11.57;;;;;;;10.95;89.70;99994.97;5076041;28;20116;-54
2022/01/02 10:07:05;;;;;;;12.48;9.73;;;;;;;10.93;89.82;99987.16;5076012;28;20072;-56
2022/01/02 10:09:36;;;;;;;11.95;9.18;;;;;;;10.95;89.55;99981.81;5075858;28;20028;-54
2022/01/02 10:12:27;;;;;;;13.18;9.25;;;;;;;10.90;89.60;99973.22;5075843;28;20410;-55
2022/01/02 10:15:12;;;;;;;13.00;10.43;;;;;;;10.92;89.68;99966.13;5069847;28;20040;-55
2022/01/02 10:17:57;;;;;;;15.30;10.73;;;;;;;10.91;89.92;99960.03;5075590;28;20024;-52
2022/01/02 10:20:48;;;;;;;15.23;11.73;;;;;;;10.99;89.46;99950.16;5077617;28;20051;-53
2022/01/02 10:23:26;;;;;;;14.88;11.52;;;;;;;10.87;90.06;99947.88;5081470;28;20102;-56
2022/01/02 10:25:52;;;;;;;11.77;9.68;;;;;;;10.86;90.21;99935.66;5079089;28;20032;-55
2022/01/02 10:28:18;;;;;;;12.60;9.43;;;;;;;10.92;89.77;99947.75;5086627;28;20069;-52
2022/01/02 10:30:48;;;;;;;10.48;8.82;;;;;;;10.93;89.67;99926.69;5095517;28;20364;-55
2022/01/02 10:33:14;;;;;;;10.35;8.15;;;;;;;11.02;89.04;99925.53;5095498;28;20048;-53
2022/01/02 10:35:43;;;;;;;13.88;10.00;;;;;;;10.97;89.30;99923.06;5095689;28;20065;-52
2022/01/02 10:38:16;;;;;;;13.18;10.02;;;;;;;10.85;89.64;99928.66;5095775;28;20032;-56
2022/01/02 10:40:42;;;;;;;12.13;8.90;;;;;;;10.92;89.55;99924.94;5092886;28;20048;-55
2022/01/02 10:43:22;;;;;;;13.75;9.68;;;;;;;10.83;90.21;99919.97;5083458;28;20032;-54
2022/01/02 10:45:50;;;;;;;11.93;9.52;;;;;;;10.82;90.30;99919.13;5089100;28;20508;-56
2022/01/02 10:48:18;;;;;;;14.13;9.75;;;;;;;10.80;90.57;99912.16;5083924;28;20077;-56
2022/01/02 10:51:06;;;;;;;13.23;9.30;;;;;;;10.82;90.17;99905.13;5079236;28;20087;-54
2022/01/02 10:53:34;;;;;;;13.75;8.60;;;;;;;10.91;89.90;99889.06;5090014;28;20379;-57
2022/01/02 10:56:01;;;;;;;14.75;10.00;;;;;;;10.76;90.81;99873.75;5084618;28;20036;-53
2022/01/02 10:58:28;;;;;;;11.38;8.45;;;;;;;10.78;90.71;99854.41;5084626;28;20128;-57
2022/01/02 11:01:00;;;;;;;14.38;10.63;;;;;;;10.79;90.71;99860.53;5095255;28;20032;-55
2022/01/02 11:03:28;;;;;;;10.80;8.38;;;;;;;10.84;90.47;99851.59;5095149;28;20063;-56
2022/01/02 11:06:04;;;;;;;12.52;10.20;;;;;;;10.84;90.35;99842.84;5091212;28;20028;-57
2022/01/02 11:08:34;;;;;;;11.45;8.43;;;;;;;10.88;90.24;99847.09;5095108;28;20525;-56
2022/01/02 11:11:00;;;;;;;13.48;9.55;;;;;;;10.89;90.32;99834.81;5094737;28;20032;-55
2022/01/02 11:13:25;;;;;;;12.20;9.70;;;;;;;10.85;90.47;99831.41;5094969;28;20498;-54
2022/01/02 11:15:53;;;;;;;11.30;8.63;;;;;;;10.96;89.85;99825.81;5095003;28;20032;-54
2022/01/02 11:18:19;;;;;;;13.25;9.90;;;;;;;10.93;89.92;99818.91;5094777;28;20031;-54
2022/01/02 11:20:45;;;;;;;10.45;8.90;;;;;;;10.94;90.07;99819.78;5078570;28;20052;-55
2022/01/02 11:23:35;;;;;;;10.15;8.75;;;;;;;10.98;89.78;99813.50;5089646;28;20036;-54
2022/01/02 11:26:18;;;;;;;9.07;7.40;;;;;;;10.97;90.02;99807.41;5094590;28;20036;-55
2022/01/02 11:28:50;;;;;;;9.93;7.60;;;;;;;11.03;89.63;99801.06;5094226;28;20070;-55
2022/01/02 11:31:39;;;;;;;9.50;7.93;;;;;;;11.07;89.21;99795.66;5094628;28;20032;-55
2022/01/02 11:34:27;;;;;;;9.07;6.93;;;;;;;11.09;89.14;99788.59;5094386;28;20131;-53